sensor_id;sensor_type;location;lat;lon;timestamp;temperature;humidity
15991;DHT22;8100;50.994;4.538;2024-01-10T00:02:26;-5.70;1.00
15991;DHT22;8100;50.994;4.538;2024-01-10T00:05:13;-5.70;1.00
15991;DHT22;8100;50.994;4.538;2024-01-10T00:08:00;-5.60;1.00
15991;DHT22;8100;50.994;4.538;2024-01-10T00:10:48;-5.60;1.00
15991;DHT22;8100;50.994;4.538;2024-01-10T00:13:34;-5.70;1.00
15991;DHT22;8100;50.994;4.538;2024-01-10T00:16:21;-5.70;1.00
15991;DHT22;8100;50.994;4.538;2024-01-10T00:19:10;-5.70;1.00
15991;DHT22;8100;50.994;4.538;2024-01-10T00:21:57;-5.70;1.00
15991;DHT22;8100;50.994;4.538;2024-01-10T00:24:44;-5.70;1.00
15991;DHT22;8100;50.994;4.538;2024-01-10T00:27:31;-5.80;1.00
15991;DHT22;8100;50.994;4.538;2024-01-10T00:30:17;-5.90;1.00
15991;DHT22;8100;50.994;4.538;2024-01-10T00:33:05;-6.00;1.00
15991;DHT22;8100;50.994;4.538;2024-01-10T00:35:53;-6.20;1.00
15991;DHT22;8100;50.994;4.538;2024-01-10T00:38:40;-6.30;1.00
15991;DHT22;8100;50.994;4.538;2024-01-10T00:41:27;-6.30;1.00
15991;DHT22;8100;50.994;4.538;2024-01-10T00:44:14;-6.40;1.00
15991;DHT22;8100;50.994;4.538;2024-01-10T00:47:01;-6.40;1.00
15991;DHT22;8100;50.994;4.538;2024-01-10T00:49:48;-6.50;1.00
15991;DHT22;8100;50.994;4.538;2024-01-10T00:52:36;-6.50;1.00
15991;DHT22;8100;50.994;4.538;2024-01-10T00:55:23;-6.60;1.00
15991;DHT22;8100;50.994;4.538;2024-01-10T00:58:10;-6.60;1.00
15991;DHT22;8100;50.994;4.538;2024-01-10T01:00:57;-6.70;1.00
15991;DHT22;8100;50.994;4.538;2024-01-10T01:03:44;-6.80;1.00
15991;DHT22;8100;50.994;4.538;2024-01-10T01:06:31;-6.80;1.00
15991;DHT22;8100;50.994;4.538;2024-01-10T01:09:19;-6.90;1.00
15991;DHT22;8100;50.994;4.538;2024-01-10T01:12:06;-6.80;99.90
15991;DHT22;8100;50.994;4.538;2024-01-10T01:14:53;-6.90;99.90
15991;DHT22;8100;50.994;4.538;2024-01-10T01:17:40;-6.90;92.20
15991;DHT22;8100;50.994;4.538;2024-01-10T01:20:27;-6.90;99.90
15991;DHT22;8100;50.994;4.538;2024-01-10T01:23:14;-7.00;99.90
15991;DHT22;8100;50.994;4.538;2024-01-10T01:26:03;-7.00;1.00
15991;DHT22;8100;50.994;4.538;2024-01-10T01:28:50;-7.10;99.90
15991;DHT22;8100;50.994;4.538;2024-01-10T01:31:37;-7.20;99.90
15991;DHT22;8100;50.994;4.538;2024-01-10T01:34:24;-7.20;99.90
15991;DHT22;8100;50.994;4.538;2024-01-10T01:37:11;-7.30;99.90
15991;DHT22;8100;50.994;4.538;2024-01-10T01:39:58;-7.30;99.90
15991;DHT22;8100;50.994;4.538;2024-01-10T01:42:47;-7.30;99.90
15991;DHT22;8100;50.994;4.538;2024-01-10T01:45:34;-7.30;99.90
15991;DHT22;8100;50.994;4.538;2024-01-10T01:48:22;-7.20;99.90
15991;DHT22;8100;50.994;4.538;2024-01-10T01:51:09;-7.20;99.90
15991;DHT22;8100;50.994;4.538;2024-01-10T01:53:57;-7.30;99.90
15991;DHT22;8100;50.994;4.538;2024-01-10T01:56:45;-7.30;99.90
15991;DHT22;8100;50.994;4.538;2024-01-10T01:59:34;-7.40;99.90
15991;DHT22;8100;50.994;4.538;2024-01-10T02:02:22;-7.40;99.90
15991;DHT22;8100;50.994;4.538;2024-01-10T02:05:09;-7.50;99.90
15991;DHT22;8100;50.994;4.538;2024-01-10T02:07:56;-7.60;99.90
15991;DHT22;8100;50.994;4.538;2024-01-10T02:10:43;-7.60;99.90
15991;DHT22;8100;50.994;4.538;2024-01-10T02:13:31;-7.70;99.90
15991;DHT22;8100;50.994;4.538;2024-01-10T02:16:20;-7.70;99.90
15991;DHT22;8100;50.994;4.538;2024-01-10T02:19:20;-7.70;99.90
15991;DHT22;8100;50.994;4.538;2024-01-10T02:22:07;-7.70;99.90
15991;DHT22;8100;50.994;4.538;2024-01-10T02:24:55;-7.70;99.90
15991;DHT22;8100;50.994;4.538;2024-01-10T02:27:42;-7.70;99.90
15991;DHT22;8100;50.994;4.538;2024-01-10T02:30:29;-7.70;99.90
15991;DHT22;8100;50.994;4.538;2024-01-10T02:33:16;-7.70;99.90
15991;DHT22;8100;50.994;4.538;2024-01-10T02:36:04;-7.80;99.90
15991;DHT22;8100;50.994;4.538;2024-01-10T02:38:51;-7.80;99.90
15991;DHT22;8100;50.994;4.538;2024-01-10T02:41:39;-7.80;99.90
15991;DHT22;8100;50.994;4.538;2024-01-10T02:44:27;-7.80;99.90
15991;DHT22;8100;50.994;4.538;2024-01-10T02:47:14;-7.80;99.90
15991;DHT22;8100;50.994;4.538;2024-01-10T02:50:01;-7.80;99.90
15991;DHT22;8100;50.994;4.538;2024-01-10T02:52:48;-7.80;99.90
15991;DHT22;8100;50.994;4.538;2024-01-10T02:55:35;-7.80;99.90
15991;DHT22;8100;50.994;4.538;2024-01-10T02:58:23;-7.80;99.90
15991;DHT22;8100;50.994;4.538;2024-01-10T03:01:11;-7.90;99.90
15991;DHT22;8100;50.994;4.538;2024-01-10T03:04:00;-7.90;99.90
15991;DHT22;8100;50.994;4.538;2024-01-10T03:06:47;-7.90;99.90
15991;DHT22;8100;50.994;4.538;2024-01-10T03:09:34;-7.90;99.90
15991;DHT22;8100;50.994;4.538;2024-01-10T03:12:21;-7.90;99.90
15991;DHT22;8100;50.994;4.538;2024-01-10T03:15:09;-7.90;99.90
15991;DHT22;8100;50.994;4.538;2024-01-10T03:17:56;-7.90;99.90
15991;DHT22;8100;50.994;4.538;2024-01-10T03:20:43;-7.90;99.90
15991;DHT22;8100;50.994;4.538;2024-01-10T03:23:30;-7.90;99.90
15991;DHT22;8100;50.994;4.538;2024-01-10T03:26:17;-7.90;99.90
15991;DHT22;8100;50.994;4.538;2024-01-10T03:29:04;-7.90;99.90
15991;DHT22;8100;50.994;4.538;2024-01-10T03:31:52;-7.90;99.90
15991;DHT22;8100;50.994;4.538;2024-01-10T03:34:41;-8.00;99.90
15991;DHT22;8100;50.994;4.538;2024-01-10T03:37:28;-8.00;99.90
15991;DHT22;8100;50.994;4.538;2024-01-10T03:40:15;-8.00;99.90
15991;DHT22;8100;50.994;4.538;2024-01-10T03:43:02;-8.00;99.90
15991;DHT22;8100;50.994;4.538;2024-01-10T03:45:49;-8.00;99.90
15991;DHT22;8100;50.994;4.538;2024-01-10T03:48:37;-8.10;99.90
15991;DHT22;8100;50.994;4.538;2024-01-10T03:51:33;-8.00;99.90
15991;DHT22;8100;50.994;4.538;2024-01-10T03:54:20;-8.10;99.90
15991;DHT22;8100;50.994;4.538;2024-01-10T03:57:06;-8.10;99.90
15991;DHT22;8100;50.994;4.538;2024-01-10T03:59:53;-8.10;99.90
15991;DHT22;8100;50.994;4.538;2024-01-10T04:02:40;-8.10;99.90
15991;DHT22;8100;50.994;4.538;2024-01-10T04:05:29;-8.10;99.90
15991;DHT22;8100;50.994;4.538;2024-01-10T04:08:16;-8.20;99.90
15991;DHT22;8100;50.994;4.538;2024-01-10T04:11:03;-8.20;99.90
15991;DHT22;8100;50.994;4.538;2024-01-10T04:13:50;-8.10;99.90
15991;DHT22;8100;50.994;4.538;2024-01-10T04:16:37;-8.00;99.90
15991;DHT22;8100;50.994;4.538;2024-01-10T04:19:24;-8.00;99.90
15991;DHT22;8100;50.994;4.538;2024-01-10T04:22:12;-8.10;99.90
15991;DHT22;8100;50.994;4.538;2024-01-10T04:25:00;-8.10;99.90
15991;DHT22;8100;50.994;4.538;2024-01-10T04:27:47;-8.10;99.90
15991;DHT22;8100;50.994;4.538;2024-01-10T04:30:35;-8.10;99.90
15991;DHT22;8100;50.994;4.538;2024-01-10T04:33:22;-8.20;99.90
15991;DHT22;8100;50.994;4.538;2024-01-10T04:36:09;-8.10;99.90
15991;DHT22;8100;50.994;4.538;2024-01-10T04:38:58;-8.00;99.90
15991;DHT22;8100;50.994;4.538;2024-01-10T04:41:45;-7.90;99.90
15991;DHT22;8100;50.994;4.538;2024-01-10T04:44:32;-7.80;1.00
15991;DHT22;8100;50.994;4.538;2024-01-10T04:47:19;-7.80;1.00
15991;DHT22;8100;50.994;4.538;2024-01-10T04:50:07;-7.80;1.00
15991;DHT22;8100;50.994;4.538;2024-01-10T04:52:54;-7.90;1.00
15991;DHT22;8100;50.994;4.538;2024-01-10T04:55:42;-7.90;1.00
15991;DHT22;8100;50.994;4.538;2024-01-10T04:58:29;-8.00;1.00
15991;DHT22;8100;50.994;4.538;2024-01-10T05:01:18;-8.00;1.00
15991;DHT22;8100;50.994;4.538;2024-01-10T05:04:05;-8.00;1.00
15991;DHT22;8100;50.994;4.538;2024-01-10T05:06:52;-8.00;1.00
15991;DHT22;8100;50.994;4.538;2024-01-10T05:09:39;-8.00;1.00
15991;DHT22;8100;50.994;4.538;2024-01-10T05:12:28;-8.00;1.00
15991;DHT22;8100;50.994;4.538;2024-01-10T05:15:15;-8.00;1.00
15991;DHT22;8100;50.994;4.538;2024-01-10T05:18:02;-8.00;1.00
15991;DHT22;8100;50.994;4.538;2024-01-10T05:20:49;-8.00;1.00
15991;DHT22;8100;50.994;4.538;2024-01-10T05:23:36;-8.00;1.00
15991;DHT22;8100;50.994;4.538;2024-01-10T05:26:25;-8.10;1.00
15991;DHT22;8100;50.994;4.538;2024-01-10T05:29:13;-7.90;1.00
15991;DHT22;8100;50.994;4.538;2024-01-10T05:32:00;-7.90;99.90
15991;DHT22;8100;50.994;4.538;2024-01-10T05:34:47;-8.10;82.10
15991;DHT22;8100;50.994;4.538;2024-01-10T05:37:35;-8.10;42.90
15991;DHT22;8100;50.994;4.538;2024-01-10T05:40:22;-8.20;1.00
15991;DHT22;8100;50.994;4.538;2024-01-10T05:43:09;-8.20;6.70
15991;DHT22;8100;50.994;4.538;2024-01-10T05:45:59;-8.30;99.90
15991;DHT22;8100;50.994;4.538;2024-01-10T05:48:46;-8.40;99.90
15991;DHT22;8100;50.994;4.538;2024-01-10T05:51:33;-8.40;99.90
15991;DHT22;8100;50.994;4.538;2024-01-10T05:54:20;-8.40;99.90
15991;DHT22;8100;50.994;4.538;2024-01-10T05:57:07;-8.40;1.00
15991;DHT22;8100;50.994;4.538;2024-01-10T05:59:54;-8.50;1.00
15991;DHT22;8100;50.994;4.538;2024-01-10T06:02:43;-8.40;1.00
15991;DHT22;8100;50.994;4.538;2024-01-10T06:05:30;-8.50;1.00
15991;DHT22;8100;50.994;4.538;2024-01-10T06:08:18;-8.50;16.50
15991;DHT22;8100;50.994;4.538;2024-01-10T06:11:06;-8.40;1.50
15991;DHT22;8100;50.994;4.538;2024-01-10T06:13:54;-8.30;65.00
15991;DHT22;8100;50.994;4.538;2024-01-10T06:16:43;-8.10;1.00
15991;DHT22;8100;50.994;4.538;2024-01-10T06:19:32;-7.90;1.00
15991;DHT22;8100;50.994;4.538;2024-01-10T06:22:19;-7.80;1.00
15991;DHT22;8100;50.994;4.538;2024-01-10T06:25:10;-7.80;1.00
15991;DHT22;8100;50.994;4.538;2024-01-10T06:27:57;-7.80;1.00
15991;DHT22;8100;50.994;4.538;2024-01-10T06:30:44;-7.70;99.90
15991;DHT22;8100;50.994;4.538;2024-01-10T06:33:31;-7.50;99.90
15991;DHT22;8100;50.994;4.538;2024-01-10T06:36:19;-7.40;1.00
15991;DHT22;8100;50.994;4.538;2024-01-10T06:39:09;-7.30;15.70
15991;DHT22;8100;50.994;4.538;2024-01-10T06:41:58;-7.20;1.00
15991;DHT22;8100;50.994;4.538;2024-01-10T06:44:45;-7.10;99.90
15991;DHT22;8100;50.994;4.538;2024-01-10T06:47:32;-7.20;99.90
15991;DHT22;8100;50.994;4.538;2024-01-10T06:50:19;-7.20;1.00
15991;DHT22;8100;50.994;4.538;2024-01-10T06:53:08;-7.20;99.90
15991;DHT22;8100;50.994;4.538;2024-01-10T06:55:55;-7.20;18.00
15991;DHT22;8100;50.994;4.538;2024-01-10T06:58:42;-7.30;1.00
15991;DHT22;8100;50.994;4.538;2024-01-10T07:01:30;-7.20;51.60
15991;DHT22;8100;50.994;4.538;2024-01-10T07:04:17;-7.20;1.00
15991;DHT22;8100;50.994;4.538;2024-01-10T07:07:04;-7.20;1.00
15991;DHT22;8100;50.994;4.538;2024-01-10T07:09:52;-7.20;99.90
15991;DHT22;8100;50.994;4.538;2024-01-10T07:12:39;-7.20;99.90
15991;DHT22;8100;50.994;4.538;2024-01-10T07:15:27;-7.10;99.90
15991;DHT22;8100;50.994;4.538;2024-01-10T07:18:14;-7.10;99.90
15991;DHT22;8100;50.994;4.538;2024-01-10T07:21:01;-7.10;99.90
15991;DHT22;8100;50.994;4.538;2024-01-10T07:23:48;-7.10;99.90
15991;DHT22;8100;50.994;4.538;2024-01-10T07:26:37;-7.20;1.00
15991;DHT22;8100;50.994;4.538;2024-01-10T07:29:24;-7.20;99.90
15991;DHT22;8100;50.994;4.538;2024-01-10T07:32:11;-7.30;1.00
15991;DHT22;8100;50.994;4.538;2024-01-10T07:34:59;-7.30;1.00
15991;DHT22;8100;50.994;4.538;2024-01-10T07:37:45;-7.30;1.00
15991;DHT22;8100;50.994;4.538;2024-01-10T07:40:33;-7.30;99.90
15991;DHT22;8100;50.994;4.538;2024-01-10T07:43:21;-7.30;99.90
15991;DHT22;8100;50.994;4.538;2024-01-10T07:46:08;-7.20;1.00
15991;DHT22;8100;50.994;4.538;2024-01-10T07:48:55;-7.20;1.00
15991;DHT22;8100;50.994;4.538;2024-01-10T07:51:42;-7.20;1.00
15991;DHT22;8100;50.994;4.538;2024-01-10T07:54:29;-7.20;99.90
15991;DHT22;8100;50.994;4.538;2024-01-10T07:57:17;-7.30;99.90
15991;DHT22;8100;50.994;4.538;2024-01-10T08:00:07;-7.30;99.90
15991;DHT22;8100;50.994;4.538;2024-01-10T08:02:56;-7.10;1.00
15991;DHT22;8100;50.994;4.538;2024-01-10T08:05:43;-7.10;1.00
15991;DHT22;8100;50.994;4.538;2024-01-10T08:08:30;-7.10;1.00
15991;DHT22;8100;50.994;4.538;2024-01-10T08:11:17;-7.10;1.00
15991;DHT22;8100;50.994;4.538;2024-01-10T08:14:05;-7.10;1.00
15991;DHT22;8100;50.994;4.538;2024-01-10T08:16:53;-7.00;1.00
15991;DHT22;8100;50.994;4.538;2024-01-10T08:19:40;-7.00;99.90
15991;DHT22;8100;50.994;4.538;2024-01-10T08:22:27;-6.90;99.90
15991;DHT22;8100;50.994;4.538;2024-01-10T08:25:14;-6.80;99.90
15991;DHT22;8100;50.994;4.538;2024-01-10T08:28:04;-6.80;1.00
15991;DHT22;8100;50.994;4.538;2024-01-10T08:30:51;-6.70;1.00
15991;DHT22;8100;50.994;4.538;2024-01-10T08:33:40;-6.60;1.00
15991;DHT22;8100;50.994;4.538;2024-01-10T08:36:27;-6.50;1.00
15991;DHT22;8100;50.994;4.538;2024-01-10T08:39:14;-6.50;1.00
15991;DHT22;8100;50.994;4.538;2024-01-10T08:42:01;-6.40;1.00
15991;DHT22;8100;50.994;4.538;2024-01-10T08:44:48;-6.30;99.90
15991;DHT22;8100;50.994;4.538;2024-01-10T08:47:35;-6.30;99.90
15991;DHT22;8100;50.994;4.538;2024-01-10T08:50:24;-6.20;99.90
15991;DHT22;8100;50.994;4.538;2024-01-10T08:53:11;-6.10;99.90
15991;DHT22;8100;50.994;4.538;2024-01-10T08:55:58;-6.10;99.90
15991;DHT22;8100;50.994;4.538;2024-01-10T08:58:45;-6.00;32.00
15991;DHT22;8100;50.994;4.538;2024-01-10T09:01:32;-5.90;1.00
15991;DHT22;8100;50.994;4.538;2024-01-10T09:04:19;-5.80;1.00
15991;DHT22;8100;50.994;4.538;2024-01-10T09:07:08;-5.80;1.00
15991;DHT22;8100;50.994;4.538;2024-01-10T09:09:56;-5.70;1.00
15991;DHT22;8100;50.994;4.538;2024-01-10T09:12:43;-5.60;1.00
15991;DHT22;8100;50.994;4.538;2024-01-10T09:15:31;-5.50;1.00
15991;DHT22;8100;50.994;4.538;2024-01-10T09:18:18;-5.40;1.00
15991;DHT22;8100;50.994;4.538;2024-01-10T09:21:05;-5.40;1.00
15991;DHT22;8100;50.994;4.538;2024-01-10T09:23:54;-5.40;1.00
15991;DHT22;8100;50.994;4.538;2024-01-10T09:26:41;-5.30;1.00
15991;DHT22;8100;50.994;4.538;2024-01-10T09:29:30;-5.30;1.00
15991;DHT22;8100;50.994;4.538;2024-01-10T09:32:17;-5.30;1.00
15991;DHT22;8100;50.994;4.538;2024-01-10T09:35:05;-5.20;1.00
15991;DHT22;8100;50.994;4.538;2024-01-10T09:37:52;-5.10;1.00
15991;DHT22;8100;50.994;4.538;2024-01-10T09:40:41;-5.10;1.00
15991;DHT22;8100;50.994;4.538;2024-01-10T09:43:30;-5.00;99.90
15991;DHT22;8100;50.994;4.538;2024-01-10T09:46:17;-4.80;99.90
15991;DHT22;8100;50.994;4.538;2024-01-10T09:49:05;-4.80;99.90
15991;DHT22;8100;50.994;4.538;2024-01-10T09:51:58;-4.70;99.90
15991;DHT22;8100;50.994;4.538;2024-01-10T09:54:47;-4.60;99.90
15991;DHT22;8100;50.994;4.538;2024-01-10T09:57:41;-4.60;99.90
15991;DHT22;8100;50.994;4.538;2024-01-10T10:00:28;-4.50;99.90
15991;DHT22;8100;50.994;4.538;2024-01-10T10:03:17;-4.50;99.90
15991;DHT22;8100;50.994;4.538;2024-01-10T10:06:04;-4.40;99.90
15991;DHT22;8100;50.994;4.538;2024-01-10T10:08:51;-4.20;99.90
15991;DHT22;8100;50.994;4.538;2024-01-10T10:11:39;-4.20;99.90
15991;DHT22;8100;50.994;4.538;2024-01-10T10:14:29;-4.10;99.90
15991;DHT22;8100;50.994;4.538;2024-01-10T10:17:17;-4.10;99.90
15991;DHT22;8100;50.994;4.538;2024-01-10T10:20:05;-3.90;99.90
15991;DHT22;8100;50.994;4.538;2024-01-10T10:23:00;-3.90;99.90
15991;DHT22;8100;50.994;4.538;2024-01-10T10:25:47;-3.80;99.90
15991;DHT22;8100;50.994;4.538;2024-01-10T10:28:35;-3.70;99.90
15991;DHT22;8100;50.994;4.538;2024-01-10T10:31:23;-3.70;99.90
15991;DHT22;8100;50.994;4.538;2024-01-10T10:34:11;-3.60;98.20
15991;DHT22;8100;50.994;4.538;2024-01-10T10:36:58;-3.50;93.00
15991;DHT22;8100;50.994;4.538;2024-01-10T10:39:45;-3.40;35.00
15991;DHT22;8100;50.994;4.538;2024-01-10T10:42:33;-3.40;18.20
15991;DHT22;8100;50.994;4.538;2024-01-10T10:45:22;-3.40;23.90
15991;DHT22;8100;50.994;4.538;2024-01-10T10:48:16;-3.30;5.10
15991;DHT22;8100;50.994;4.538;2024-01-10T10:51:06;-3.20;8.30
15991;DHT22;8100;50.994;4.538;2024-01-10T10:53:55;-3.20;1.00
15991;DHT22;8100;50.994;4.538;2024-01-10T10:56:43;-3.20;1.00
15991;DHT22;8100;50.994;4.538;2024-01-10T10:59:36;-3.10;1.00
15991;DHT22;8100;50.994;4.538;2024-01-10T11:02:24;-3.00;1.00
15991;DHT22;8100;50.994;4.538;2024-01-10T11:05:13;-2.90;1.00
15991;DHT22;8100;50.994;4.538;2024-01-10T11:08:02;-2.80;1.00
15991;DHT22;8100;50.994;4.538;2024-01-10T11:10:52;-2.80;1.00
15991;DHT22;8100;50.994;4.538;2024-01-10T11:14:01;-2.70;1.00
15991;DHT22;8100;50.994;4.538;2024-01-10T11:20:34;-2.50;1.00
15991;DHT22;8100;50.994;4.538;2024-01-10T11:23:39;-2.40;1.00
15991;DHT22;8100;50.994;4.538;2024-01-10T11:26:27;-2.30;1.00
15991;DHT22;8100;50.994;4.538;2024-01-10T11:29:15;-2.30;1.00
15991;DHT22;8100;50.994;4.538;2024-01-10T11:32:02;-2.20;1.00
15991;DHT22;8100;50.994;4.538;2024-01-10T11:34:54;-2.20;1.00
15991;DHT22;8100;50.994;4.538;2024-01-10T11:37:44;-2.10;1.00
15991;DHT22;8100;50.994;4.538;2024-01-10T11:40:46;-2.20;1.00
15991;DHT22;8100;50.994;4.538;2024-01-10T11:43:34;-2.10;1.00
15991;DHT22;8100;50.994;4.538;2024-01-10T11:46:21;-2.10;1.00
15991;DHT22;8100;50.994;4.538;2024-01-10T11:49:09;-2.00;1.00
15991;DHT22;8100;50.994;4.538;2024-01-10T11:51:58;-2.10;1.00
15991;DHT22;8100;50.994;4.538;2024-01-10T11:54:48;-1.90;1.00
15991;DHT22;8100;50.994;4.538;2024-01-10T11:57:36;-1.90;1.00
15991;DHT22;8100;50.994;4.538;2024-01-10T12:00:23;-1.80;1.00
15991;DHT22;8100;50.994;4.538;2024-01-10T12:03:12;-1.80;1.00
15991;DHT22;8100;50.994;4.538;2024-01-10T12:05:59;-1.70;1.00
15991;DHT22;8100;50.994;4.538;2024-01-10T12:08:47;-1.60;1.00
15991;DHT22;8100;50.994;4.538;2024-01-10T12:11:35;-1.50;1.00
15991;DHT22;8100;50.994;4.538;2024-01-10T12:14:25;-1.50;1.00
15991;DHT22;8100;50.994;4.538;2024-01-10T12:17:14;-1.50;1.00
15991;DHT22;8100;50.994;4.538;2024-01-10T12:20:02;-1.40;1.00
15991;DHT22;8100;50.994;4.538;2024-01-10T12:22:49;-1.30;1.00
15991;DHT22;8100;50.994;4.538;2024-01-10T12:25:36;-1.30;1.00
15991;DHT22;8100;50.994;4.538;2024-01-10T12:28:25;-1.20;1.00
15991;DHT22;8100;50.994;4.538;2024-01-10T12:31:12;-1.30;1.00
15991;DHT22;8100;50.994;4.538;2024-01-10T12:34:01;-1.30;1.00
15991;DHT22;8100;50.994;4.538;2024-01-10T12:36:55;-1.30;1.00
15991;DHT22;8100;50.994;4.538;2024-01-10T12:39:43;-1.30;1.00
15991;DHT22;8100;50.994;4.538;2024-01-10T12:42:30;-1.20;1.00
15991;DHT22;8100;50.994;4.538;2024-01-10T12:45:22;-1.20;1.00
15991;DHT22;8100;50.994;4.538;2024-01-10T12:48:13;-1.10;1.00
15991;DHT22;8100;50.994;4.538;2024-01-10T12:51:03;-1.10;1.00
15991;DHT22;8100;50.994;4.538;2024-01-10T12:53:52;-1.00;1.00
15991;DHT22;8100;50.994;4.538;2024-01-10T12:56:39;-1.00;1.00
15991;DHT22;8100;50.994;4.538;2024-01-10T12:59:26;-0.90;1.00
15991;DHT22;8100;50.994;4.538;2024-01-10T13:02:15;-0.90;1.00
15991;DHT22;8100;50.994;4.538;2024-01-10T13:05:04;-0.90;1.00
15991;DHT22;8100;50.994;4.538;2024-01-10T13:07:54;-0.80;1.00
15991;DHT22;8100;50.994;4.538;2024-01-10T13:10:42;-0.70;1.00
15991;DHT22;8100;50.994;4.538;2024-01-10T13:13:29;-0.60;1.00
15991;DHT22;8100;50.994;4.538;2024-01-10T13:16:16;-0.70;1.00
15991;DHT22;8100;50.994;4.538;2024-01-10T13:19:05;-0.70;1.00
15991;DHT22;8100;50.994;4.538;2024-01-10T13:21:52;-0.70;1.00
15991;DHT22;8100;50.994;4.538;2024-01-10T13:24:39;-0.60;1.00
15991;DHT22;8100;50.994;4.538;2024-01-10T13:27:26;-0.50;1.00
15991;DHT22;8100;50.994;4.538;2024-01-10T13:30:13;-0.40;1.00
15991;DHT22;8100;50.994;4.538;2024-01-10T13:33:00;-0.40;1.00
15991;DHT22;8100;50.994;4.538;2024-01-10T13:35:49;-0.40;1.00
15991;DHT22;8100;50.994;4.538;2024-01-10T13:38:36;-0.40;1.00
15991;DHT22;8100;50.994;4.538;2024-01-10T13:41:23;-0.50;1.00
15991;DHT22;8100;50.994;4.538;2024-01-10T13:44:10;-0.50;1.00
15991;DHT22;8100;50.994;4.538;2024-01-10T13:46:57;-0.40;1.00
15991;DHT22;8100;50.994;4.538;2024-01-10T13:49:44;-0.50;1.00
15991;DHT22;8100;50.994;4.538;2024-01-10T13:52:33;-0.50;1.00
15991;DHT22;8100;50.994;4.538;2024-01-10T13:55:20;-0.40;1.00
15991;DHT22;8100;50.994;4.538;2024-01-10T13:58:09;-0.40;1.00
15991;DHT22;8100;50.994;4.538;2024-01-10T14:00:56;-0.40;1.00
15991;DHT22;8100;50.994;4.538;2024-01-10T14:03:43;-0.40;1.00
15991;DHT22;8100;50.994;4.538;2024-01-10T14:06:30;-0.30;1.00
15991;DHT22;8100;50.994;4.538;2024-01-10T14:09:19;-0.30;1.00
15991;DHT22;8100;50.994;4.538;2024-01-10T14:12:06;-0.30;1.00
15991;DHT22;8100;50.994;4.538;2024-01-10T14:14:53;-0.30;1.00
15991;DHT22;8100;50.994;4.538;2024-01-10T14:17:41;-0.30;1.00
15991;DHT22;8100;50.994;4.538;2024-01-10T14:20:28;-0.30;1.00
15991;DHT22;8100;50.994;4.538;2024-01-10T14:23:15;-0.30;1.00
15991;DHT22;8100;50.994;4.538;2024-01-10T14:26:04;-0.30;1.00
15991;DHT22;8100;50.994;4.538;2024-01-10T14:28:52;-0.30;1.00
15991;DHT22;8100;50.994;4.538;2024-01-10T14:31:41;-0.30;1.00
15991;DHT22;8100;50.994;4.538;2024-01-10T14:34:28;-0.30;1.00
15991;DHT22;8100;50.994;4.538;2024-01-10T14:37:15;-0.40;1.00
15991;DHT22;8100;50.994;4.538;2024-01-10T14:40:03;-0.40;1.00
15991;DHT22;8100;50.994;4.538;2024-01-10T14:42:53;-0.40;1.00
15991;DHT22;8100;50.994;4.538;2024-01-10T14:45:40;-0.40;1.00
15991;DHT22;8100;50.994;4.538;2024-01-10T14:48:27;-0.50;1.00
15991;DHT22;8100;50.994;4.538;2024-01-10T14:51:14;-0.40;1.00
15991;DHT22;8100;50.994;4.538;2024-01-10T14:54:02;-0.50;1.00
15991;DHT22;8100;50.994;4.538;2024-01-10T14:56:49;-0.60;1.00
15991;DHT22;8100;50.994;4.538;2024-01-10T14:59:40;-0.60;1.00
15991;DHT22;8100;50.994;4.538;2024-01-10T15:02:27;-0.70;1.00
15991;DHT22;8100;50.994;4.538;2024-01-10T15:05:14;-0.70;1.00
15991;DHT22;8100;50.994;4.538;2024-01-10T15:08:02;-0.70;1.00
15991;DHT22;8100;50.994;4.538;2024-01-10T15:10:53;-0.70;1.00
15991;DHT22;8100;50.994;4.538;2024-01-10T15:13:40;-0.70;1.00
15991;DHT22;8100;50.994;4.538;2024-01-10T15:16:29;-0.70;1.00
15991;DHT22;8100;50.994;4.538;2024-01-10T15:19:16;-0.80;1.00
15991;DHT22;8100;50.994;4.538;2024-01-10T15:22:04;-0.80;1.00
15991;DHT22;8100;50.994;4.538;2024-01-10T15:24:51;-0.60;1.00
15991;DHT22;8100;50.994;4.538;2024-01-10T15:27:38;0.10;1.00
15991;DHT22;8100;50.994;4.538;2024-01-10T15:30:25;0.30;1.00
15991;DHT22;8100;50.994;4.538;2024-01-10T15:33:14;0.50;1.00
15991;DHT22;8100;50.994;4.538;2024-01-10T15:36:01;0.10;1.00
15991;DHT22;8100;50.994;4.538;2024-01-10T15:38:49;-0.50;1.00
15991;DHT22;8100;50.994;4.538;2024-01-10T15:41:36;-0.80;1.00
15991;DHT22;8100;50.994;4.538;2024-01-10T15:44:23;-1.00;1.00
15991;DHT22;8100;50.994;4.538;2024-01-10T15:47:10;-1.20;1.00
15991;DHT22;8100;50.994;4.538;2024-01-10T15:49:59;-1.30;1.00
15991;DHT22;8100;50.994;4.538;2024-01-10T15:52:46;-1.40;1.00
15991;DHT22;8100;50.994;4.538;2024-01-10T15:55:34;-1.50;1.00
15991;DHT22;8100;50.994;4.538;2024-01-10T15:58:22;-1.50;1.00
15991;DHT22;8100;50.994;4.538;2024-01-10T16:01:09;-1.70;1.00
15991;DHT22;8100;50.994;4.538;2024-01-10T16:03:56;-1.70;1.00
15991;DHT22;8100;50.994;4.538;2024-01-10T16:06:44;-1.80;1.00
15991;DHT22;8100;50.994;4.538;2024-01-10T16:09:31;-1.90;1.00
15991;DHT22;8100;50.994;4.538;2024-01-10T16:12:21;-1.90;1.00
15991;DHT22;8100;50.994;4.538;2024-01-10T16:15:09;-2.00;1.00
15991;DHT22;8100;50.994;4.538;2024-01-10T16:17:56;-2.00;1.00
15991;DHT22;8100;50.994;4.538;2024-01-10T16:20:43;-2.00;1.00
15991;DHT22;8100;50.994;4.538;2024-01-10T16:23:31;-2.10;1.00
15991;DHT22;8100;50.994;4.538;2024-01-10T16:26:18;-2.20;1.00
15991;DHT22;8100;50.994;4.538;2024-01-10T16:29:05;-2.20;1.00
15991;DHT22;8100;50.994;4.538;2024-01-10T16:31:53;-2.30;1.00
15991;DHT22;8100;50.994;4.538;2024-01-10T16:34:40;-2.40;1.00
15991;DHT22;8100;50.994;4.538;2024-01-10T16:37:27;-2.50;1.00
15991;DHT22;8100;50.994;4.538;2024-01-10T16:40:15;-2.60;1.00
15991;DHT22;8100;50.994;4.538;2024-01-10T16:43:03;-2.60;1.00
15991;DHT22;8100;50.994;4.538;2024-01-10T16:45:50;-2.70;1.00
15991;DHT22;8100;50.994;4.538;2024-01-10T16:48:37;-2.80;1.00
15991;DHT22;8100;50.994;4.538;2024-01-10T16:51:24;-2.80;1.00
15991;DHT22;8100;50.994;4.538;2024-01-10T16:54:11;-2.80;1.00
15991;DHT22;8100;50.994;4.538;2024-01-10T16:56:59;-2.80;1.00
15991;DHT22;8100;50.994;4.538;2024-01-10T16:59:46;-2.90;1.00
15991;DHT22;8100;50.994;4.538;2024-01-10T17:02:33;-3.00;1.00
15991;DHT22;8100;50.994;4.538;2024-01-10T17:05:20;-3.00;1.00
15991;DHT22;8100;50.994;4.538;2024-01-10T17:08:08;-3.00;1.00
15991;DHT22;8100;50.994;4.538;2024-01-10T17:10:55;-3.00;1.00
15991;DHT22;8100;50.994;4.538;2024-01-10T17:13:43;-3.20;1.00
15991;DHT22;8100;50.994;4.538;2024-01-10T17:16:30;-3.30;1.00
15991;DHT22;8100;50.994;4.538;2024-01-10T17:19:18;-3.30;1.00
15991;DHT22;8100;50.994;4.538;2024-01-10T17:22:05;-3.30;1.00
15991;DHT22;8100;50.994;4.538;2024-01-10T17:24:53;-3.40;1.00
15991;DHT22;8100;50.994;4.538;2024-01-10T17:27:40;-3.40;1.00
15991;DHT22;8100;50.994;4.538;2024-01-10T17:30:29;-3.30;1.00
15991;DHT22;8100;50.994;4.538;2024-01-10T17:33:16;-3.20;1.00
15991;DHT22;8100;50.994;4.538;2024-01-10T17:36:07;-3.20;1.00
15991;DHT22;8100;50.994;4.538;2024-01-10T17:38:53;-3.30;1.00
15991;DHT22;8100;50.994;4.538;2024-01-10T17:41:55;-3.30;1.00
15991;DHT22;8100;50.994;4.538;2024-01-10T17:44:42;-3.40;1.00
15991;DHT22;8100;50.994;4.538;2024-01-10T17:47:29;-3.50;1.00
15991;DHT22;8100;50.994;4.538;2024-01-10T17:50:16;-3.60;1.00
15991;DHT22;8100;50.994;4.538;2024-01-10T17:53:03;-3.60;1.00
15991;DHT22;8100;50.994;4.538;2024-01-10T17:55:50;-3.70;1.00
15991;DHT22;8100;50.994;4.538;2024-01-10T17:58:39;-3.70;1.00
15991;DHT22;8100;50.994;4.538;2024-01-10T18:01:26;-3.70;1.00
15991;DHT22;8100;50.994;4.538;2024-01-10T18:04:12;-3.70;1.00
15991;DHT22;8100;50.994;4.538;2024-01-10T18:06:59;-3.80;1.00
15991;DHT22;8100;50.994;4.538;2024-01-10T18:09:47;-3.80;1.00
15991;DHT22;8100;50.994;4.538;2024-01-10T18:12:33;-3.80;1.00
15991;DHT22;8100;50.994;4.538;2024-01-10T18:15:22;-3.70;1.00